Time;durP1;ratioP1;P1;durP2;ratioP2;P2;SDS_P1;SDS_P2;PMS_P1;PMS_P2;Temp;Humidity;BMP_temperature;BMP_pressure;BME280_temperature;BME280_humidity;BME280_pressure;Samples;Min_cycle;Max_cycle;Signal;HPM_P1;HPM_P2
2022/07/15 00:05:01;;;;;;;3.33;2.73;;;25.40;20.70;;;;;;10434386;28;20217;-73
2022/07/15 00:10:20;;;;;;;2.97;2.70;;;25.30;20.90;;;;;;10433248;28;20239;-73
2022/07/15 00:15:25;;;;;;;4.03;3.00;;;25.20;20.90;;;;;;10432476;28;20595;-73
2022/07/15 00:20:33;;;;;;;3.00;2.70;;;25.10;21.10;;;;;;10434224;28;20225;-73
2022/07/15 00:25:37;;;;;;;2.70;2.50;;;25.10;21.60;;;;;;10434510;28;20320;-73
2022/07/15 00:30:42;;;;;;;2.67;2.47;;;25.00;21.30;;;;;;10440563;28;20225;-73
2022/07/15 00:35:46;;;;;;;4.57;2.30;;;24.90;21.30;;;;;;10438363;28;20260;-73
2022/07/15 00:40:50;;;;;;;3.87;2.10;;;24.80;21.30;;;;;;10440507;28;20225;-73
2022/07/15 00:45:54;;;;;;;2.50;2.07;;;24.70;21.20;;;;;;10431764;28;20241;-73
2022/07/15 00:50:59;;;;;;;3.17;1.93;;;24.60;21.10;;;;;;10441894;28;20217;-73
2022/07/15 00:56:03;;;;;;;3.00;1.80;;;24.50;21.00;;;;;;10441319;28;20231;-73
2022/07/15 01:01:08;;;;;;;2.63;1.70;;;24.40;20.80;;;;;;10432069;28;20220;-73
2022/07/15 01:06:14;;;;;;;2.50;1.50;;;24.30;20.90;;;;;;10436951;28;20256;-73
2022/07/15 01:11:17;;;;;;;3.23;1.73;;;24.10;20.90;;;;;;10437835;28;20233;-73
2022/07/15 01:16:20;;;;;;;3.20;1.80;;;24.00;20.80;;;;;;10436803;28;20221;-73
2022/07/15 01:21:25;;;;;;;2.43;1.70;;;23.90;20.90;;;;;;10434872;28;20294;-73
2022/07/15 01:26:28;;;;;;;2.33;1.63;;;23.80;21.10;;;;;;10434465;28;20225;-73
2022/07/15 01:31:31;;;;;;;1.67;1.57;;;23.80;21.00;;;;;;10436838;28;20233;-74
2022/07/15 01:36:36;;;;;;;2.67;1.60;;;23.70;21.00;;;;;;10435603;28;20229;-73
2022/07/15 01:41:39;;;;;;;3.60;1.83;;;23.60;21.30;;;;;;10436519;28;20234;-73
2022/07/15 01:46:42;;;;;;;3.03;1.27;;;23.60;21.20;;;;;;10424785;28;20213;-72
2022/07/15 01:51:47;;;;;;;2.10;1.53;;;23.60;21.20;;;;;;10432124;28;20726;-73
2022/07/15 01:56:50;;;;;;;2.90;1.90;;;23.60;21.50;;;;;;10428580;28;20221;-73
2022/07/15 02:01:55;;;;;;;2.43;1.60;;;23.50;21.40;;;;;;10431824;28;20963;-74
2022/07/15 02:07:00;;;;;;;2.10;1.20;;;23.50;21.50;;;;;;10426919;28;20904;-73
2022/07/15 02:12:04;;;;;;;1.97;1.30;;;23.50;21.40;;;;;;10432009;28;20220;-73
2022/07/15 02:17:07;;;;;;;1.60;1.40;;;23.40;21.40;;;;;;10430891;28;20235;-73
2022/07/15 02:22:12;;;;;;;1.30;1.20;;;23.40;21.40;;;;;;10429555;28;20240;-73
2022/07/15 02:27:15;;;;;;;3.37;1.60;;;23.30;21.60;;;;;;10429567;28;20235;-73
2022/07/15 02:32:18;;;;;;;2.17;1.27;;;23.20;21.70;;;;;;10428921;28;20241;-73
2022/07/15 02:37:23;;;;;;;2.67;1.53;;;23.20;21.90;;;;;;10425306;28;20235;-73
2022/07/15 02:42:26;;;;;;;2.13;1.53;;;23.10;22.20;;;;;;10427039;28;20742;-73
2022/07/15 02:47:29;;;;;;;1.60;1.50;;;23.10;21.90;;;;;;10435261;28;20698;-73
2022/07/15 02:52:35;;;;;;;1.60;1.50;;;23.10;22.00;;;;;;10434965;28;20232;-73
2022/07/15 02:57:38;;;;;;;1.63;1.30;;;23.10;22.40;;;;;;10426856;28;20229;-73
2022/07/15 03:02:42;;;;;;;4.37;1.73;;;23.00;22.10;;;;;;10427507;28;20226;-73
2022/07/15 03:07:47;;;;;;;2.30;1.60;;;22.90;22.20;;;;;;10437589;28;20586;-73
2022/07/15 03:12:50;;;;;;;2.23;1.50;;;22.80;22.40;;;;;;10437118;28;20224;-73
2022/07/15 03:17:54;;;;;;;1.63;1.50;;;22.70;22.30;;;;;;10439056;28;20223;-73
2022/07/15 03:22:58;;;;;;;2.10;1.90;;;22.60;22.20;;;;;;10440942;28;20240;-73
2022/07/15 03:28:01;;;;;;;2.47;1.40;;;22.60;22.70;;;;;;10438682;28;20225;-72
2022/07/15 03:33:04;;;;;;;1.40;1.30;;;22.50;22.40;;;;;;10443467;28;20220;-73
2022/07/15 03:38:09;;;;;;;4.17;1.60;;;22.40;22.50;;;;;;10434736;28;20233;-73
2022/07/15 03:43:13;;;;;;;2.13;1.40;;;22.30;22.90;;;;;;10439546;28;20228;-73
2022/07/15 03:48:16;;;;;;;3.70;1.80;;;22.20;22.90;;;;;;10441969;28;20228;-73
2022/07/15 03:53:21;;;;;;;1.70;1.50;;;22.10;23.00;;;;;;10445709;28;20232;-73
2022/07/15 03:58:24;;;;;;;2.77;1.60;;;22.00;23.30;;;;;;10443858;28;20226;-72
2022/07/15 04:03:28;;;;;;;1.50;1.40;;;21.80;23.20;;;;;;10451065;28;20267;-73
2022/07/15 04:08:33;;;;;;;1.97;1.53;;;21.80;23.70;;;;;;10454115;28;20229;-73
2022/07/15 04:13:36;;;;;;;2.63;1.87;;;21.70;23.80;;;;;;10443835;28;20755;-72
2022/07/15 04:18:39;;;;;;;3.03;1.70;;;21.60;23.70;;;;;;10439730;28;20315;-73
2022/07/15 04:23:44;;;;;;;2.90;1.67;;;21.50;23.70;;;;;;10436854;28;20244;-72
2022/07/15 04:28:47;;;;;;;1.93;1.57;;;21.50;24.20;;;;;;10437076;28;20221;-72
2022/07/15 04:33:51;;;;;;;2.77;1.70;;;21.40;23.90;;;;;;10440852;28;20229;-72
2022/07/15 04:38:55;;;;;;;1.53;1.43;;;21.40;24.20;;;;;;10436261;28;20232;-74
2022/07/15 04:43:59;;;;;;;3.70;1.77;;;21.40;24.60;;;;;;10444826;28;20228;-73
2022/07/15 04:54:24;;;;;;;2.50;1.63;;;21.30;24.80;;;;;;10442479;28;20227;-73
2022/07/15 04:59:27;;;;;;;2.73;1.60;;;21.50;25.60;;;;;;10442754;28;20236;-73
2022/07/15 05:04:31;;;;;;;2.70;1.40;;;21.70;25.30;;;;;;10439857;28;20229;-73
2022/07/15 05:09:35;;;;;;;2.30;1.60;;;21.90;25.30;;;;;;10433229;28;20236;-73
2022/07/15 05:14:40;;;;;;;2.80;1.70;;;22.10;25.40;;;;;;10439589;28;20221;-74
2022/07/15 05:19:44;;;;;;;3.07;2.13;;;22.30;25.00;;;;;;10439443;28;20228;-73
2022/07/15 05:24:48;;;;;;;2.73;1.90;;;22.40;24.90;;;;;;10434149;28;20236;-73
2022/07/15 05:29:52;;;;;;;2.03;1.50;;;22.40;25.00;;;;;;10436369;28;20225;-73
2022/07/15 05:34:56;;;;;;;3.83;1.63;;;22.60;24.80;;;;;;10436120;28;21233;-73
2022/07/15 05:40:00;;;;;;;2.60;1.80;;;22.60;24.90;;;;;;10439492;28;20251;-73
2022/07/15 05:45:04;;;;;;;2.53;1.77;;;22.70;25.10;;;;;;10440959;28;20232;-73
2022/07/15 05:50:08;;;;;;;4.33;1.70;;;22.80;25.00;;;;;;10435186;28;20655;-73
2022/07/15 05:55:13;;;;;;;2.73;1.60;;;22.90;24.70;;;;;;10432105;28;20221;-74
2022/07/15 06:00:16;;;;;;;2.53;1.60;;;23.00;24.60;;;;;;10429768;28;20246;-73
2022/07/15 06:05:20;;;;;;;2.57;1.70;;;23.10;24.60;;;;;;10438311;28;20229;-73
2022/07/15 06:10:25;;;;;;;1.87;1.60;;;23.10;24.30;;;;;;10436830;28;20243;-73
2022/07/15 06:15:28;;;;;;;2.40;1.90;;;23.20;24.40;;;;;;10436727;28;20312;-73
2022/07/15 06:20:32;;;;;;;3.00;1.73;;;23.20;24.30;;;;;;10437221;28;20225;-73
2022/07/15 06:25:37;;;;;;;3.37;1.50;;;23.30;24.20;;;;;;10429208;28;20225;-73
2022/07/15 06:30:40;;;;;;;1.77;1.60;;;23.30;24.10;;;;;;10423188;28;20606;-72
2022/07/15 06:35:44;;;;;;;2.57;1.20;;;23.40;24.10;;;;;;10429990;28;20220;-73
2022/07/15 06:40:49;;;;;;;2.70;1.50;;;23.50;23.80;;;;;;10430723;28;20222;-73
2022/07/15 06:45:52;;;;;;;2.73;1.27;;;23.50;23.70;;;;;;10424872;28;20232;-73
2022/07/15 06:50:55;;;;;;;2.87;1.70;;;23.60;23.40;;;;;;10434150;28;20239;-73
2022/07/15 06:56:00;;;;;;;2.40;1.50;;;23.60;23.40;;;;;;10428973;28;20225;-73
2022/07/15 07:01:03;;;;;;;2.20;1.37;;;23.70;23.00;;;;;;10435205;28;20248;-73
2022/07/15 07:06:07;;;;;;;2.90;1.50;;;23.70;23.00;;;;;;10432489;28;20235;-73
2022/07/15 07:11:11;;;;;;;3.37;1.10;;;23.80;22.80;;;;;;10428167;28;20229;-73
2022/07/15 07:16:14;;;;;;;1.13;1.03;;;23.80;22.70;;;;;;10438084;28;20225;-73
2022/07/15 07:21:18;;;;;;;2.13;1.20;;;24.00;22.70;;;;;;10429659;28;20232;-73
2022/07/15 07:26:23;;;;;;;1.30;1.20;;;24.10;22.60;;;;;;10432051;28;20304;-73
2022/07/15 07:31:27;;;;;;;1.40;1.30;;;24.20;22.50;;;;;;10433006;28;20236;-73
2022/07/15 07:36:30;;;;;;;2.50;1.50;;;24.20;22.20;;;;;;10429630;28;20308;-73
2022/07/15 07:41:35;;;;;;;1.20;1.03;;;24.50;22.20;;;;;;10420441;28;20229;-73
2022/07/15 07:46:38;;;;;;;1.30;1.20;;;24.60;21.80;;;;;;10428062;28;20708;-73
2022/07/15 07:51:41;;;;;;;2.50;1.40;;;24.60;21.80;;;;;;10433617;28;20245;-73
2022/07/15 07:56:46;;;;;;;1.97;1.20;;;24.80;21.70;;;;;;10434361;28;20221;-73
2022/07/15 08:01:50;;;;;;;1.87;1.40;;;24.90;21.20;;;;;;10441647;28;20259;-73
2022/07/15 08:06:53;;;;;;;2.37;1.30;;;25.00;21.30;;;;;;10437031;28;20237;-73
2022/07/15 08:11:58;;;;;;;2.30;1.40;;;25.20;21.20;;;;;;10425998;28;20269;-73
2022/07/15 08:17:01;;;;;;;1.80;1.30;;;25.40;20.90;;;;;;10433219;28;20314;-73
2022/07/15 08:22:04;;;;;;;1.40;1.30;;;25.50;20.70;;;;;;10433463;28;20305;-73
2022/07/15 08:27:18;;;;;;;1.40;1.30;;;25.70;20.30;;;;;;10440291;28;20300;-73
2022/07/15 08:32:21;;;;;;;1.80;1.37;;;25.80;19.80;;;;;;10434712;28;20252;-73
2022/07/15 08:37:26;;;;;;;3.17;1.50;;;25.90;19.80;;;;;;10434954;28;20224;-73
2022/07/15 08:42:31;;;;;;;2.43;1.57;;;26.00;19.20;;;;;;10434281;28;20233;-73
2022/07/15 08:47:34;;;;;;;1.80;1.50;;;26.10;19.10;;;;;;10437067;28;20312;-73
2022/07/15 08:52:56;;;;;;;2.03;1.57;;;26.30;19.40;;;;;;10437857;28;20228;-73
2022/07/15 08:58:01;;;;;;;2.13;1.60;;;26.50;19.30;;;;;;10434032;28;20240;-73
2022/07/15 09:03:05;;;;;;;1.63;1.53;;;26.70;19.10;;;;;;10437399;28;20228;-73
2022/07/15 09:08:11;;;;;;;1.67;1.57;;;26.90;19.40;;;;;;10442142;28;20737;-73
2022/07/15 09:13:24;;;;;;;3.70;1.90;;;27.10;18.70;;;;;;10434428;28;20243;-73
2022/07/15 09:18:29;;;;;;;1.70;1.60;;;27.30;17.80;;;;;;10433464;28;20227;-73
2022/07/15 09:23:33;;;;;;;2.13;1.80;;;27.40;18.40;;;;;;10433400;28;20298;-73
2022/07/15 09:28:40;;;;;;;1.80;1.70;;;27.50;18.50;;;;;;10430728;28;20874;-73
2022/07/15 09:33:43;;;;;;;1.90;1.70;;;27.70;17.90;;;;;;10435443;28;20964;-73
2022/07/15 09:38:49;;;;;;;3.90;2.03;;;27.90;18.00;;;;;;10434681;28;20601;-73
2022/07/15 09:43:56;;;;;;;2.33;1.47;;;28.10;17.30;;;;;;10434603;28;20740;-73
2022/07/15 09:48:59;;;;;;;1.97;1.80;;;28.10;17.00;;;;;;10430304;28;20231;-74
2022/07/15 09:54:03;;;;;;;1.80;1.70;;;28.20;17.30;;;;;;10431614;28;20225;-74
2022/07/15 09:59:09;;;;;;;2.50;1.90;;;28.30;17.20;;;;;;10435577;28;20255;-73
2022/07/15 10:04:12;;;;;;;1.97;1.87;;;28.50;16.80;;;;;;10437012;28;20229;-74
2022/07/15 10:09:16;;;;;;;2.07;1.80;;;28.60;17.00;;;;;;10435241;28;20240;-74
2022/07/15 10:14:57;;;;;;;2.60;1.50;;;28.60;16.50;;;;;;10434261;28;20221;-74
2022/07/15 10:20:27;;;;;;;3.60;2.10;;;28.70;16.30;;;;;;10432066;28;20217;-74
2022/07/15 10:25:46;;;;;;;1.93;1.73;;;28.80;15.80;;;;;;10430501;28;20232;-74
2022/07/15 10:31:15;;;;;;;2.70;1.87;;;28.70;15.50;;;;;;10437650;28;20228;-74
2022/07/15 10:36:19;;;;;;;2.30;1.53;;;28.70;16.10;;;;;;10433427;28;20233;-74
2022/07/15 10:41:22;;;;;;;2.03;1.90;;;28.70;16.30;;;;;;10432599;28;20903;-74
2022/07/15 10:46:29;;;;;;;3.53;1.90;;;28.70;16.20;;;;;;10435150;28;20237;-73
2022/07/15 10:51:46;;;;;;;2.77;1.80;;;28.70;16.20;;;;;;10429086;28;20595;-73
2022/07/15 10:56:51;;;;;;;2.23;1.90;;;28.80;15.60;;;;;;10431843;28;20219;-73
2022/07/15 11:02:14;;;;;;;2.67;2.00;;;28.80;15.80;;;;;;10424446;28;20236;-74
2022/07/15 11:07:31;;;;;;;1.97;1.77;;;28.90;14.80;;;;;;10426980;28;20228;-74
2022/07/15 11:12:59;;;;;;;4.67;2.03;;;28.80;13.20;;;;;;10426645;28;20236;-75
2022/07/15 11:18:04;;;;;;;3.00;2.00;;;28.70;14.20;;;;;;10424539;28;20216;-74
2022/07/15 11:23:12;;;;;;;1.83;1.73;;;28.60;14.60;;;;;;10432987;28;20596;-75
2022/07/15 11:28:23;;;;;;;3.53;2.00;;;28.50;15.20;;;;;;10434358;28;20228;-74
2022/07/15 11:33:30;;;;;;;1.90;1.80;;;28.60;15.70;;;;;;10431386;28;20225;-74
2022/07/15 11:38:39;;;;;;;4.20;1.70;;;28.60;14.80;;;;;;10436710;28;20236;-74
2022/07/15 11:49:05;;;;;;;2.03;1.90;;;28.70;15.00;;;;;;10436461;28;20228;-74
2022/07/15 11:54:14;;;;;;;1.80;1.70;;;28.90;14.50;;;;;;10439310;28;20316;-74
2022/07/15 11:59:17;;;;;;;3.40;1.90;;;28.90;13.70;;;;;;10433671;28;20242;-74
2022/07/15 12:04:28;;;;;;;3.17;1.87;;;28.90;14.00;;;;;;10436481;28;20232;-74
2022/07/15 12:09:40;;;;;;;2.13;2.00;;;28.90;13.50;;;;;;10437710;28;20233;-74
2022/07/15 12:14:46;;;;;;;1.97;1.73;;;28.90;14.10;;;;;;10440485;28;20225;-74
2022/07/15 12:19:53;;;;;;;2.97;1.90;;;29.00;14.30;;;;;;10435136;28;20713;-75
2022/07/15 12:24:56;;;;;;;1.97;1.57;;;29.00;14.10;;;;;;10436053;28;20282;-75
2022/07/15 12:30:03;;;;;;;1.90;1.70;;;29.00;13.80;;;;;;10436434;28;20224;-75
2022/07/15 12:35:12;;;;;;;1.80;1.70;;;29.10;14.00;;;;;;10440037;28;20263;-75
2022/07/15 12:40:22;;;;;;;2.87;1.87;;;29.10;14.00;;;;;;10436733;28;20225;-75
2022/07/15 12:45:27;;;;;;;2.30;1.97;;;29.20;13.10;;;;;;10437391;28;20247;-76
2022/07/15 12:50:33;;;;;;;1.73;1.63;;;29.20;13.70;;;;;;10440533;28;20237;-75
2022/07/15 12:55:42;;;;;;;2.17;1.83;;;29.20;13.00;;;;;;10435399;28;20709;-75
2022/07/15 13:00:46;;;;;;;2.50;1.80;;;29.10;13.50;;;;;;10435591;28;20239;-75
2022/07/15 13:05:53;;;;;;;2.43;1.97;;;29.10;13.70;;;;;;10437460;28;20410;-76
2022/07/15 13:10:57;;;;;;;2.10;1.90;;;29.10;12.70;;;;;;10437164;28;20221;-75
2022/07/15 13:16:02;;;;;;;2.00;1.80;;;29.10;13.30;;;;;;10436746;28;20271;-75
2022/07/15 13:21:06;;;;;;;2.10;1.90;;;29.20;13.40;;;;;;10436119;28;20263;-75
2022/07/15 13:26:10;;;;;;;2.20;1.80;;;29.20;13.00;;;;;;10433340;28;20311;-75
2022/07/15 13:31:13;;;;;;;2.07;1.93;;;29.20;13.20;;;;;;10431947;28;20228;-74
2022/07/15 13:36:18;;;;;;;2.27;1.70;;;29.30;13.10;;;;;;10438851;28;20316;-75
2022/07/15 13:41:21;;;;;;;3.00;1.83;;;29.40;13.20;;;;;;10430292;28;20237;-75
2022/07/15 13:46:25;;;;;;;2.00;1.80;;;29.50;13.00;;;;;;10435223;28;20251;-75
2022/07/15 13:51:29;;;;;;;1.70;1.60;;;29.60;12.90;;;;;;10428441;28;20224;-75
2022/07/15 13:56:33;;;;;;;2.43;1.80;;;29.60;12.90;;;;;;10432589;28;20232;-74
2022/07/15 14:01:38;;;;;;;1.80;1.70;;;29.70;12.90;;;;;;10429628;28;20229;-73
2022/07/15 14:06:42;;;;;;;2.13;1.67;;;29.70;13.10;;;;;;10431197;28;20248;-73
2022/07/15 14:11:46;;;;;;;1.87;1.73;;;29.80;12.70;;;;;;10431368;28;20706;-73
2022/07/15 14:16:49;;;;;;;2.53;2.00;;;29.80;12.70;;;;;;10430233;28;20224;-73
2022/07/15 14:21:54;;;;;;;1.83;1.73;;;29.80;12.60;;;;;;10431480;28;20228;-73
2022/07/15 14:26:57;;;;;;;2.00;1.90;;;29.90;12.30;;;;;;10425707;28;20751;-73
2022/07/15 14:32:08;;;;;;;2.70;2.10;;;29.90;12.20;;;;;;10427544;28;20673;-73
2022/07/15 14:37:14;;;;;;;2.00;1.90;;;29.90;12.10;;;;;;10424972;28;20263;-73
2022/07/15 14:42:38;;;;;;;1.83;1.73;;;29.90;12.00;;;;;;10429135;28;20233;-73
2022/07/15 14:47:42;;;;;;;3.03;2.10;;;30.00;12.20;;;;;;10431801;28;20312;-73
2022/07/15 14:52:46;;;;;;;1.97;1.87;;;30.10;11.90;;;;;;10431202;28;20236;-73
2022/07/15 14:57:49;;;;;;;1.93;1.83;;;30.00;11.00;;;;;;10431225;28;20221;-73
2022/07/15 15:02:53;;;;;;;3.77;1.97;;;30.00;11.40;;;;;;10435651;28;20234;-73
2022/07/15 15:07:58;;;;;;;2.20;1.90;;;30.00;11.00;;;;;;10428296;28;20232;-72
2022/07/15 15:13:01;;;;;;;6.73;2.00;;;30.00;10.60;;;;;;10434240;28;20220;-72
2022/07/15 15:18:04;;;;;;;2.43;2.20;;;30.00;11.00;;;;;;10434705;28;20301;-72
2022/07/15 15:23:11;;;;;;;2.73;1.93;;;29.90;11.40;;;;;;10430314;28;20249;-71
2022/07/15 15:28:15;;;;;;;2.87;1.90;;;29.80;10.80;;;;;;10435534;28;20769;-71
2022/07/15 15:33:19;;;;;;;2.03;1.80;;;29.80;11.20;;;;;;10426285;28;20243;-70
2022/07/15 15:38:24;;;;;;;3.20;1.90;;;29.80;11.50;;;;;;10435298;28;20235;-70
2022/07/15 15:43:27;;;;;;;3.27;2.40;;;29.80;11.00;;;;;;10420503;28;20229;-71
2022/07/15 15:48:30;;;;;;;2.50;1.90;;;29.90;11.50;;;;;;10428151;28;20236;-71
2022/07/15 15:53:35;;;;;;;2.20;2.00;;;29.90;11.00;;;;;;10437628;28;20240;-71
2022/07/15 15:58:40;;;;;;;2.23;1.90;;;29.90;10.50;;;;;;10431397;28;20637;-73
2022/07/15 16:03:43;;;;;;;2.27;2.10;;;29.90;10.70;;;;;;10426977;28;20748;-73
2022/07/15 16:08:48;;;;;;;2.47;2.17;;;29.90;10.80;;;;;;10427793;28;20312;-73
2022/07/15 16:13:52;;;;;;;2.17;1.87;;;29.80;11.10;;;;;;10431377;28;20228;-73
2022/07/15 16:18:55;;;;;;;2.67;2.00;;;29.80;11.30;;;;;;10437625;28;20279;-73
2022/07/15 16:24:00;;;;;;;2.17;1.97;;;29.80;10.90;;;;;;10434961;28;20708;-73
2022/07/15 16:29:03;;;;;;;2.17;1.97;;;29.70;10.40;;;;;;10432957;28;20228;-73
2022/07/15 16:34:06;;;;;;;2.20;2.00;;;29.60;10.70;;;;;;10432928;28;20907;-73
2022/07/15 16:39:11;;;;;;;2.03;1.93;;;29.50;10.90;;;;;;10436155;28;20243;-72
2022/07/15 16:44:14;;;;;;;2.13;1.93;;;29.50;11.00;;;;;;10440945;28;20229;-73
2022/07/15 16:49:17;;;;;;;2.10;2.00;;;29.50;11.00;;;;;;10432572;28;20231;-72
2022/07/15 16:54:22;;;;;;;2.20;2.00;;;29.60;11.10;;;;;;10442980;28;20225;-71
2022/07/15 16:59:25;;;;;;;2.40;1.77;;;29.60;10.90;;;;;;10440370;28;20312;-71
2022/07/15 17:04:28;;;;;;;1.90;1.80;;;29.70;11.10;;;;;;10444560;28;20248;-71
2022/07/15 17:09:33;;;;;;;3.53;1.53;;;29.90;10.80;;;;;;10443588;28;20229;-71
2022/07/15 17:14:37;;;;;;;2.20;2.00;;;29.90;10.60;;;;;;10440301;28;20220;-71
2022/07/15 17:19:40;;;;;;;3.07;1.77;;;30.00;10.80;;;;;;10437346;28;20721;-70
2022/07/15 17:24:44;;;;;;;2.10;1.90;;;30.10;10.60;;;;;;10437796;28;20232;-71
2022/07/15 17:29:48;;;;;;;2.20;2.00;;;30.10;10.60;;;;;;10431382;28;20225;-70
2022/07/15 17:34:51;;;;;;;1.93;1.80;;;30.10;10.60;;;;;;10428880;28;20225;-71
2022/07/15 17:39:56;;;;;;;4.13;1.87;;;30.10;10.60;;;;;;10439116;28;20228;-70
2022/07/15 17:44:59;;;;;;;2.10;1.60;;;30.00;10.50;;;;;;10430755;28;20233;-71
2022/07/15 17:50:02;;;;;;;1.80;1.70;;;30.00;10.50;;;;;;10425761;28;20316;-72
2022/07/15 17:55:08;;;;;;;1.80;1.70;;;30.00;10.50;;;;;;10422628;28;20320;-73
2022/07/15 18:00:13;;;;;;;2.17;1.77;;;29.90;10.50;;;;;;10421137;28;20231;-73
2022/07/15 18:05:16;;;;;;;1.77;1.67;;;29.80;10.80;;;;;;10420379;28;20221;-73
2022/07/15 18:10:21;;;;;;;3.73;1.97;;;29.80;11.00;;;;;;10413579;28;20221;-72
2022/07/15 18:15:25;;;;;;;3.80;1.87;;;29.70;11.10;;;;;;10416309;28;20236;-71
2022/07/15 18:20:28;;;;;;;3.13;1.83;;;29.70;11.50;;;;;;10410176;28;20225;-72
2022/07/15 18:25:33;;;;;;;2.20;1.90;;;29.60;11.60;;;;;;10415022;28;20252;-72
2022/07/15 18:30:36;;;;;;;2.90;1.80;;;29.60;11.70;;;;;;10414883;28;20235;-72
2022/07/15 18:35:40;;;;;;;1.90;1.50;;;29.50;11.60;;;;;;10414812;28;20228;-72
2022/07/15 18:40:45;;;;;;;2.20;1.80;;;29.30;11.70;;;;;;10413674;28;20228;-72
2022/07/15 18:45:48;;;;;;;2.13;1.87;;;29.20;12.00;;;;;;10411904;28;20235;-73
2022/07/15 18:50:52;;;;;;;1.67;1.50;;;29.10;12.10;;;;;;10423240;28;20233;-73
2022/07/15 18:55:58;;;;;;;2.63;1.80;;;28.90;12.40;;;;;;10421016;28;20463;-73
2022/07/15 19:01:02;;;;;;;2.00;1.80;;;28.80;12.50;;;;;;10421567;28;20231;-73
2022/07/15 19:06:05;;;;;;;1.50;1.40;;;28.70;12.60;;;;;;10422642;28;20259;-73
2022/07/15 19:11:10;;;;;;;4.33;1.80;;;28.50;12.60;;;;;;10421768;28;20655;-73
2022/07/15 19:16:13;;;;;;;4.13;1.80;;;28.40;12.70;;;;;;10419667;28;20777;-73
2022/07/15 19:21:17;;;;;;;3.20;1.80;;;28.20;12.60;;;;;;10418586;28;20225;-73
2022/07/15 19:26:22;;;;;;;2.27;1.50;;;28.10;12.70;;;;;;10414896;28;20232;-72
2022/07/15 19:31:26;;;;;;;2.07;1.87;;;27.90;12.90;;;;;;10418591;28;20229;-73
2022/07/15 19:36:29;;;;;;;1.93;1.73;;;27.80;13.00;;;;;;10421247;28;20990;-73
2022/07/15 19:41:33;;;;;;;2.07;1.60;;;27.60;13.00;;;;;;10417699;28;20233;-73
2022/07/15 19:46:37;;;;;;;2.10;1.77;;;27.50;13.20;;;;;;10418884;28;20228;-73
2022/07/15 19:51:40;;;;;;;2.00;1.70;;;27.30;13.30;;;;;;10421264;28;20878;-73
2022/07/15 19:56:45;;;;;;;2.00;1.80;;;27.10;13.40;;;;;;10426237;28;20229;-73
2022/07/15 20:01:48;;;;;;;2.67;1.80;;;26.90;13.70;;;;;;10427537;28;20244;-73
2022/07/15 20:06:51;;;;;;;4.03;1.90;;;26.80;13.70;;;;;;10427008;28;20231;-73
2022/07/15 20:11:56;;;;;;;2.17;1.73;;;26.70;14.10;;;;;;10433940;28;20233;-74
2022/07/15 20:16:59;;;;;;;2.90;1.83;;;26.60;14.30;;;;;;10425321;28;20228;-72
2022/07/15 20:22:02;;;;;;;1.80;1.70;;;26.50;14.10;;;;;;10422237;28;20225;-73
2022/07/15 20:27:09;;;;;;;2.00;1.73;;;26.40;14.30;;;;;;10417671;28;20233;-72
2022/07/15 20:32:12;;;;;;;1.87;1.77;;;26.30;14.50;;;;;;10426726;28;20232;-72
2022/07/15 20:37:16;;;;;;;3.27;1.77;;;26.30;14.60;;;;;;10420796;28;20227;-73
2022/07/15 20:42:20;;;;;;;1.90;1.70;;;26.10;14.60;;;;;;10428348;28;20245;-73
2022/07/15 20:47:24;;;;;;;1.50;1.40;;;26.00;15.00;;;;;;10431179;28;20244;-73
2022/07/15 20:52:28;;;;;;;1.80;1.50;;;26.00;15.00;;;;;;10432095;28;21015;-73
2022/07/15 20:57:32;;;;;;;1.97;1.80;;;25.80;15.20;;;;;;10430736;28;20220;-73
2022/07/15 21:02:36;;;;;;;2.03;1.83;;;25.80;15.80;;;;;;10433647;28;20235;-73
2022/07/15 21:07:40;;;;;;;3.20;2.00;;;25.70;15.60;;;;;;10431367;28;20232;-73
2022/07/15 21:12:45;;;;;;;2.40;1.87;;;25.60;15.70;;;;;;10434246;28;20245;-73
2022/07/15 21:17:48;;;;;;;2.60;1.70;;;25.60;16.00;;;;;;10429613;28;20225;-73
2022/07/15 21:22:52;;;;;;;1.80;1.70;;;25.50;16.00;;;;;;10431263;28;20228;-73
2022/07/15 21:27:56;;;;;;;1.80;1.70;;;25.40;16.10;;;;;;10433240;28;20233;-73
2022/07/15 21:32:59;;;;;;;2.00;1.70;;;25.40;16.40;;;;;;10428220;28;20232;-73
2022/07/15 21:38:03;;;;;;;1.70;1.60;;;25.30;16.20;;;;;;10432747;28;21632;-73
2022/07/15 21:43:08;;;;;;;2.07;1.87;;;25.20;16.30;;;;;;10428894;28;20237;-73
2022/07/15 21:48:11;;;;;;;2.33;1.60;;;25.10;16.70;;;;;;10424243;28;20253;-73
2022/07/15 21:53:14;;;;;;;3.20;2.17;;;25.00;16.60;;;;;;10427369;28;20240;-73
2022/07/15 21:58:19;;;;;;;1.83;1.73;;;24.90;16.80;;;;;;10427497;28;20233;-73
2022/07/15 22:03:22;;;;;;;2.83;1.97;;;24.90;17.20;;;;;;10434307;28;20239;-73
2022/07/15 22:08:26;;;;;;;1.80;1.70;;;24.70;16.90;;;;;;10434499;28;20229;-73
2022/07/15 22:13:30;;;;;;;1.93;1.80;;;24.60;17.00;;;;;;10430564;28;20240;-73
2022/07/15 22:18:34;;;;;;;4.63;2.07;;;24.50;17.90;;;;;;10426592;28;20236;-73
2022/07/15 22:23:38;;;;;;;2.20;2.00;;;24.30;18.10;;;;;;10428164;28;20290;-73
2022/07/15 22:28:43;;;;;;;2.27;2.07;;;24.20;18.00;;;;;;10429975;28;20736;-73
2022/07/15 22:33:46;;;;;;;2.97;2.50;;;24.10;18.70;;;;;;10421669;28;20228;-73
2022/07/15 22:38:49;;;;;;;2.60;2.10;;;24.00;18.50;;;;;;10427794;28;20225;-73
2022/07/15 22:43:54;;;;;;;2.33;2.13;;;23.90;18.40;;;;;;10426972;28;20221;-73
2022/07/15 22:48:57;;;;;;;2.57;2.03;;;23.80;18.70;;;;;;10429139;28;20231;-73
2022/07/15 22:54:00;;;;;;;3.23;2.30;;;23.80;18.70;;;;;;10425262;28;20229;-73
2022/07/15 22:59:05;;;;;;;2.60;2.03;;;23.80;18.80;;;;;;10425838;28;20232;-73
2022/07/15 23:04:08;;;;;;;2.30;2.20;;;23.80;19.60;;;;;;10427883;28;20229;-73
2022/07/15 23:09:12;;;;;;;2.20;2.00;;;23.60;19.10;;;;;;10431244;28;20232;-73
2022/07/15 23:14:17;;;;;;;1.83;1.73;;;23.50;19.30;;;;;;10433027;28;20239;-73
2022/07/15 23:19:20;;;;;;;2.20;2.00;;;23.40;19.60;;;;;;10430329;28;20334;-73
2022/07/15 23:24:23;;;;;;;2.83;1.90;;;23.30;19.40;;;;;;10440734;28;20221;-73
2022/07/15 23:29:28;;;;;;;2.00;1.80;;;23.20;19.60;;;;;;10439480;28;20234;-73
2022/07/15 23:34:31;;;;;;;2.37;1.90;;;23.10;19.80;;;;;;10444027;28;20225;-73
2022/07/15 23:39:34;;;;;;;1.93;1.83;;;22.90;19.70;;;;;;10442616;28;20616;-73
2022/07/15 23:44:39;;;;;;;1.80;1.70;;;22.80;19.60;;;;;;10438458;28;20773;-73
2022/07/15 23:49:42;;;;;;;2.47;1.80;;;22.70;19.90;;;;;;10438666;28;20226;-73
2022/07/15 23:54:45;;;;;;;3.57;1.83;;;22.70;20.00;;;;;;10441051;28;20221;-73
